createdAt,value
2023-03-29T02:16:53.870Z,509.00
2023-03-29T02:32:40.620Z,502.00
2023-03-29T03:37:29.785Z,504.00
2023-03-29T05:05:05.409Z,500.00
2023-03-29T05:22:02.737Z,519.00
2023-03-29T05:26:03.870Z,517.00
2023-03-29T05:30:03.707Z,509.00
2023-03-29T05:34:03.462Z,511.00
2023-03-29T05:38:03.885Z,513.00
2023-03-29T06:05:32.135Z,512.00
2023-03-29T06:09:32.222Z,500.00
2023-03-29T06:40:29.440Z,524.00
2023-03-29T06:44:30.036Z,519.00
2023-03-29T06:48:29.932Z,521.00
2023-03-29T06:52:29.745Z,524.00
2023-03-29T07:00:47.990Z,514.00
2023-03-29T07:04:49.024Z,512.00
2023-03-29T07:17:26.806Z,510.00
2023-03-29T07:28:39.342Z,509.00
2023-03-29T07:32:40.741Z,509.00
2023-03-29T07:36:40.547Z,507.00
2023-03-29T07:40:47.140Z,508.00
2023-03-29T07:44:40.821Z,497.00
2023-03-29T07:48:39.417Z,506.00
2023-03-29T07:52:39.825Z,504.00
2023-03-29T07:56:39.587Z,508.00
2023-03-29T08:00:39.131Z,508.00
2023-03-29T08:04:39.498Z,498.00
2023-03-29T08:08:39.798Z,496.00
2023-03-29T08:12:38.672Z,502.00
2023-03-29T08:16:38.712Z,498.00
2023-03-29T08:20:38.596Z,491.00
2023-03-29T08:29:01.529Z,502.00
2023-03-29T08:37:16.889Z,497.00
2023-03-29T08:41:19.502Z,500.00
2023-03-29T08:45:19.098Z,509.00
2023-03-29T08:49:32.190Z,507.00
2023-03-29T09:01:58.245Z,503.00
2023-03-29T09:05:58.931Z,495.00
2023-03-29T09:09:55.940Z,497.00
2023-03-29T09:13:56.068Z,502.00
2023-03-29T09:17:56.126Z,507.00
2023-03-29T09:21:56.114Z,497.00
2023-03-29T09:25:56.012Z,504.00
2023-03-29T09:29:55.609Z,503.00
2023-03-29T09:33:55.693Z,499.00
2023-03-29T10:41:39.563Z,496.00
2023-03-29T10:45:39.959Z,490.00
2023-03-29T10:49:40.222Z,495.00
2023-03-29T10:53:39.385Z,493.00
2023-03-29T11:12:27.096Z,490.00
2023-03-29T11:30:24.496Z,495.00
2023-03-29T11:38:45.194Z,490.00
2023-03-29T11:42:44.028Z,500.00
2023-03-29T12:17:02.344Z,492.00
2023-03-29T12:29:41.049Z,495.00
2023-03-29T12:33:39.964Z,484.00
2023-03-29T12:37:38.808Z,494.00
2023-03-29T12:41:38.785Z,476.00
2023-03-29T12:45:38.350Z,484.00
2023-03-29T12:49:38.662Z,483.00
2023-03-29T13:02:16.252Z,491.00
2023-03-29T13:06:22.412Z,490.00
2023-03-29T13:10:16.826Z,492.00
2023-03-29T13:14:17.130Z,488.00
2023-03-29T13:18:17.293Z,488.00
2023-03-29T13:22:16.918Z,498.00
